Randolph, Ohio
Current Conditions -  °F | °C
As of 9:42 AM on Thursday 23 Oct 2014 (Local Time) from KAKR Reporting Station
Overcast Overcast  
Wind Chill: 10°   Ceiling: 1400
Heat Index: 10°   Visibility: 10mi
Dew Point:   Wind: 6mph
Humidity: 86%   Direction: 360°N
Pressure: 30.19"   Gusts: NA
Location:  41.03°N, 81.25°W
Report Text: KAKR 231342Z AUTO 36005KT 10SM SCT007 OVC014 10/08 A3019 RMK AO2 T01000078
Loading
Personal Weather Stations






























Interactive Weather Map
Tropical Storm Tracking
New forecast layout! Learn more

10-Day Weather Forecast

Advertisements
Track Severe Weather on mobile